sensor_id;sensor_type;location;lat;lon;timestamp;P1;durP1;ratioP1;P2;durP2;ratioP2
70733;SDS011;58320;48.804;9.252;2022-08-01T00:00:34;4.05;;;2.28;;
70733;SDS011;58320;48.804;9.252;2022-08-01T00:03:00;4.85;;;2.50;;
70733;SDS011;58320;48.804;9.252;2022-08-01T00:05:26;4.63;;;2.63;;
70733;SDS011;58320;48.804;9.252;2022-08-01T00:07:52;4.57;;;2.43;;
70733;SDS011;58320;48.804;9.252;2022-08-01T00:10:18;4.40;;;2.80;;
70733;SDS011;58320;48.804;9.252;2022-08-01T00:12:44;4.75;;;2.40;;
70733;SDS011;58320;48.804;9.252;2022-08-01T00:15:11;5.28;;;2.60;;
70733;SDS011;58320;48.804;9.252;2022-08-01T00:17:39;4.05;;;2.17;;
70733;SDS011;58320;48.804;9.252;2022-08-01T00:20:09;3.72;;;2.45;;
70733;SDS011;58320;48.804;9.252;2022-08-01T00:22:37;4.33;;;2.30;;
70733;SDS011;58320;48.804;9.252;2022-08-01T00:25:04;4.97;;;2.27;;
70733;SDS011;58320;48.804;9.252;2022-08-01T00:27:31;6.18;;;2.65;;
70733;SDS011;58320;48.804;9.252;2022-08-01T00:29:57;4.32;;;2.60;;
70733;SDS011;58320;48.804;9.252;2022-08-01T00:32:23;4.10;;;2.28;;
70733;SDS011;58320;48.804;9.252;2022-08-01T00:34:49;3.45;;;2.13;;
70733;SDS011;58320;48.804;9.252;2022-08-01T00:37:15;3.67;;;2.20;;
70733;SDS011;58320;48.804;9.252;2022-08-01T00:39:41;4.73;;;2.40;;
70733;SDS011;58320;48.804;9.252;2022-08-01T00:42:08;4.18;;;2.70;;
70733;SDS011;58320;48.804;9.252;2022-08-01T00:44:35;4.07;;;2.45;;
70733;SDS011;58320;48.804;9.252;2022-08-01T00:47:02;6.55;;;2.45;;
70733;SDS011;58320;48.804;9.252;2022-08-01T00:49:29;4.80;;;2.40;;
70733;SDS011;58320;48.804;9.252;2022-08-01T00:51:55;3.92;;;2.20;;
70733;SDS011;58320;48.804;9.252;2022-08-01T00:54:23;4.43;;;2.20;;
70733;SDS011;58320;48.804;9.252;2022-08-01T00:56:51;6.10;;;2.50;;
70733;SDS011;58320;48.804;9.252;2022-08-01T00:59:18;5.07;;;2.77;;
70733;SDS011;58320;48.804;9.252;2022-08-01T01:01:46;4.65;;;2.00;;
70733;SDS011;58320;48.804;9.252;2022-08-01T01:04:12;4.57;;;2.47;;
70733;SDS011;58320;48.804;9.252;2022-08-01T01:06:42;4.88;;;2.25;;
70733;SDS011;58320;48.804;9.252;2022-08-01T01:18:07;3.60;;;2.30;;
70733;SDS011;58320;48.804;9.252;2022-08-01T01:20:41;4.27;;;2.40;;
70733;SDS011;58320;48.804;9.252;2022-08-01T01:26:42;4.18;;;2.47;;
70733;SDS011;58320;48.804;9.252;2022-08-01T01:29:23;3.85;;;2.33;;
70733;SDS011;58320;48.804;9.252;2022-08-01T01:34:48;4.35;;;2.00;;
70733;SDS011;58320;48.804;9.252;2022-08-01T01:37:17;3.67;;;2.28;;
70733;SDS011;58320;48.804;9.252;2022-08-01T01:39:46;4.30;;;2.30;;
70733;SDS011;58320;48.804;9.252;2022-08-01T01:44:46;3.95;;;2.20;;
70733;SDS011;58320;48.804;9.252;2022-08-01T01:47:16;4.80;;;2.50;;
70733;SDS011;58320;48.804;9.252;2022-08-01T01:49:43;4.15;;;2.40;;
70733;SDS011;58320;48.804;9.252;2022-08-01T01:52:12;3.90;;;2.63;;
70733;SDS011;58320;48.804;9.252;2022-08-01T01:54:42;3.75;;;2.20;;
70733;SDS011;58320;48.804;9.252;2022-08-01T01:57:13;5.20;;;2.83;;
70733;SDS011;58320;48.804;9.252;2022-08-01T01:59:41;4.30;;;2.47;;
70733;SDS011;58320;48.804;9.252;2022-08-01T02:02:09;4.87;;;2.37;;
70733;SDS011;58320;48.804;9.252;2022-08-01T02:04:38;4.82;;;2.30;;
70733;SDS011;58320;48.804;9.252;2022-08-01T02:07:13;4.30;;;2.55;;
70733;SDS011;58320;48.804;9.252;2022-08-01T02:09:44;4.25;;;2.78;;
70733;SDS011;58320;48.804;9.252;2022-08-01T02:12:12;4.25;;;2.67;;
70733;SDS011;58320;48.804;9.252;2022-08-01T02:14:40;5.18;;;2.40;;
70733;SDS011;58320;48.804;9.252;2022-08-01T02:17:10;4.35;;;2.58;;
70733;SDS011;58320;48.804;9.252;2022-08-01T02:19:37;5.72;;;2.42;;
70733;SDS011;58320;48.804;9.252;2022-08-01T02:25:00;4.83;;;3.10;;
70733;SDS011;58320;48.804;9.252;2022-08-01T02:30:31;5.38;;;2.55;;
70733;SDS011;58320;48.804;9.252;2022-08-01T02:33:22;4.38;;;2.78;;
70733;SDS011;58320;48.804;9.252;2022-08-01T02:35:50;4.72;;;2.58;;
70733;SDS011;58320;48.804;9.252;2022-08-01T02:38:20;3.85;;;2.35;;
70733;SDS011;58320;48.804;9.252;2022-08-01T02:40:50;4.63;;;2.60;;
70733;SDS011;58320;48.804;9.252;2022-08-01T02:43:23;4.37;;;2.50;;
70733;SDS011;58320;48.804;9.252;2022-08-01T02:45:52;4.22;;;2.30;;
70733;SDS011;58320;48.804;9.252;2022-08-01T02:48:21;5.18;;;2.30;;
70733;SDS011;58320;48.804;9.252;2022-08-01T02:50:51;4.53;;;2.08;;
70733;SDS011;58320;48.804;9.252;2022-08-01T02:53:20;5.85;;;2.45;;
70733;SDS011;58320;48.804;9.252;2022-08-01T02:55:49;4.45;;;2.80;;
70733;SDS011;58320;48.804;9.252;2022-08-01T02:58:16;5.65;;;2.60;;
70733;SDS011;58320;48.804;9.252;2022-08-01T03:00:46;3.40;;;2.13;;
70733;SDS011;58320;48.804;9.252;2022-08-01T03:03:13;4.20;;;2.80;;
70733;SDS011;58320;48.804;9.252;2022-08-01T03:05:39;4.10;;;2.45;;
70733;SDS011;58320;48.804;9.252;2022-08-01T03:08:06;4.68;;;2.60;;
70733;SDS011;58320;48.804;9.252;2022-08-01T03:10:34;4.05;;;2.50;;
70733;SDS011;58320;48.804;9.252;2022-08-01T03:13:04;4.47;;;2.47;;
70733;SDS011;58320;48.804;9.252;2022-08-01T03:15:33;5.25;;;3.08;;
70733;SDS011;58320;48.804;9.252;2022-08-01T03:18:04;5.47;;;2.45;;
70733;SDS011;58320;48.804;9.252;2022-08-01T03:20:33;4.13;;;2.90;;
70733;SDS011;58320;48.804;9.252;2022-08-01T03:23:01;4.57;;;2.87;;
70733;SDS011;58320;48.804;9.252;2022-08-01T03:25:31;6.53;;;3.13;;
70733;SDS011;58320;48.804;9.252;2022-08-01T03:28:01;4.55;;;2.50;;
70733;SDS011;58320;48.804;9.252;2022-08-01T03:30:29;4.30;;;2.22;;
70733;SDS011;58320;48.804;9.252;2022-08-01T03:32:56;4.35;;;2.90;;
70733;SDS011;58320;48.804;9.252;2022-08-01T03:35:23;4.25;;;2.55;;
70733;SDS011;58320;48.804;9.252;2022-08-01T03:38:04;4.43;;;2.80;;
70733;SDS011;58320;48.804;9.252;2022-08-01T03:40:36;5.63;;;3.17;;
70733;SDS011;58320;48.804;9.252;2022-08-01T03:43:07;4.65;;;2.60;;
70733;SDS011;58320;48.804;9.252;2022-08-01T03:45:38;3.95;;;2.38;;
70733;SDS011;58320;48.804;9.252;2022-08-01T03:48:10;4.57;;;2.40;;
70733;SDS011;58320;48.804;9.252;2022-08-01T03:50:41;4.93;;;2.60;;
70733;SDS011;58320;48.804;9.252;2022-08-01T03:53:12;4.40;;;2.85;;
70733;SDS011;58320;48.804;9.252;2022-08-01T03:55:39;3.80;;;2.30;;
70733;SDS011;58320;48.804;9.252;2022-08-01T03:58:08;4.87;;;2.70;;
70733;SDS011;58320;48.804;9.252;2022-08-01T04:00:38;3.58;;;2.40;;
70733;SDS011;58320;48.804;9.252;2022-08-01T04:03:11;4.60;;;2.40;;
70733;SDS011;58320;48.804;9.252;2022-08-01T04:05:40;4.10;;;2.40;;
70733;SDS011;58320;48.804;9.252;2022-08-01T04:08:07;5.53;;;2.17;;
70733;SDS011;58320;48.804;9.252;2022-08-01T04:10:33;4.30;;;2.55;;
70733;SDS011;58320;48.804;9.252;2022-08-01T04:12:59;4.43;;;2.00;;
70733;SDS011;58320;48.804;9.252;2022-08-01T04:15:25;4.23;;;2.57;;
70733;SDS011;58320;48.804;9.252;2022-08-01T04:17:51;4.95;;;2.70;;
70733;SDS011;58320;48.804;9.252;2022-08-01T04:20:19;4.78;;;2.70;;
70733;SDS011;58320;48.804;9.252;2022-08-01T04:22:45;4.05;;;2.38;;
70733;SDS011;58320;48.804;9.252;2022-08-01T04:25:17;3.57;;;2.00;;
70733;SDS011;58320;48.804;9.252;2022-08-01T04:27:50;4.00;;;2.28;;
70733;SDS011;58320;48.804;9.252;2022-08-01T04:30:17;4.18;;;2.30;;
70733;SDS011;58320;48.804;9.252;2022-08-01T04:32:49;4.30;;;2.33;;
70733;SDS011;58320;48.804;9.252;2022-08-01T04:35:19;3.65;;;1.80;;
70733;SDS011;58320;48.804;9.252;2022-08-01T04:37:46;3.57;;;2.17;;
70733;SDS011;58320;48.804;9.252;2022-08-01T04:40:15;3.80;;;2.20;;
70733;SDS011;58320;48.804;9.252;2022-08-01T04:42:42;4.35;;;2.60;;
70733;SDS011;58320;48.804;9.252;2022-08-01T04:45:08;4.45;;;2.45;;
70733;SDS011;58320;48.804;9.252;2022-08-01T04:47:38;4.40;;;2.40;;
70733;SDS011;58320;48.804;9.252;2022-08-01T04:50:06;8.80;;;2.60;;
70733;SDS011;58320;48.804;9.252;2022-08-01T04:52:33;4.53;;;2.40;;
70733;SDS011;58320;48.804;9.252;2022-08-01T04:55:00;3.93;;;2.40;;
70733;SDS011;58320;48.804;9.252;2022-08-01T04:57:26;4.82;;;2.13;;
70733;SDS011;58320;48.804;9.252;2022-08-01T04:59:52;6.32;;;2.72;;
70733;SDS011;58320;48.804;9.252;2022-08-01T05:02:22;4.65;;;2.42;;
70733;SDS011;58320;48.804;9.252;2022-08-01T05:04:48;4.00;;;2.55;;
70733;SDS011;58320;48.804;9.252;2022-08-01T05:07:14;5.05;;;2.35;;
70733;SDS011;58320;48.804;9.252;2022-08-01T05:09:41;4.33;;;2.07;;
70733;SDS011;58320;48.804;9.252;2022-08-01T05:12:08;4.23;;;2.17;;
70733;SDS011;58320;48.804;9.252;2022-08-01T05:14:35;3.60;;;1.90;;
70733;SDS011;58320;48.804;9.252;2022-08-01T05:17:02;5.32;;;2.60;;
70733;SDS011;58320;48.804;9.252;2022-08-01T05:19:31;3.47;;;2.00;;
70733;SDS011;58320;48.804;9.252;2022-08-01T05:22:02;5.03;;;2.10;;
70733;SDS011;58320;48.804;9.252;2022-08-01T05:24:32;3.78;;;2.20;;
70733;SDS011;58320;48.804;9.252;2022-08-01T05:26:59;5.13;;;2.00;;
70733;SDS011;58320;48.804;9.252;2022-08-01T05:29:27;4.70;;;2.23;;
70733;SDS011;58320;48.804;9.252;2022-08-01T05:31:53;4.90;;;2.00;;
70733;SDS011;58320;48.804;9.252;2022-08-01T05:34:19;6.13;;;2.20;;
70733;SDS011;58320;48.804;9.252;2022-08-01T05:36:46;3.60;;;2.05;;
70733;SDS011;58320;48.804;9.252;2022-08-01T05:39:12;4.43;;;2.10;;
70733;SDS011;58320;48.804;9.252;2022-08-01T05:41:39;3.45;;;2.15;;
70733;SDS011;58320;48.804;9.252;2022-08-01T05:44:05;4.72;;;2.30;;
70733;SDS011;58320;48.804;9.252;2022-08-01T05:46:32;5.07;;;2.20;;
70733;SDS011;58320;48.804;9.252;2022-08-01T05:48:59;4.33;;;2.40;;
70733;SDS011;58320;48.804;9.252;2022-08-01T05:51:26;5.22;;;2.60;;
70733;SDS011;58320;48.804;9.252;2022-08-01T05:53:53;5.47;;;2.53;;
70733;SDS011;58320;48.804;9.252;2022-08-01T05:56:20;4.50;;;2.45;;
70733;SDS011;58320;48.804;9.252;2022-08-01T05:58:46;4.82;;;2.40;;
70733;SDS011;58320;48.804;9.252;2022-08-01T06:01:14;8.18;;;2.53;;
70733;SDS011;58320;48.804;9.252;2022-08-01T06:03:40;4.40;;;2.33;;
70733;SDS011;58320;48.804;9.252;2022-08-01T06:06:06;5.50;;;2.10;;
70733;SDS011;58320;48.804;9.252;2022-08-01T06:08:32;3.83;;;1.90;;
70733;SDS011;58320;48.804;9.252;2022-08-01T06:10:58;4.40;;;2.15;;
70733;SDS011;58320;48.804;9.252;2022-08-01T06:13:24;3.53;;;1.50;;
70733;SDS011;58320;48.804;9.252;2022-08-01T06:15:50;2.78;;;1.55;;
70733;SDS011;58320;48.804;9.252;2022-08-01T06:18:16;3.10;;;1.63;;
70733;SDS011;58320;48.804;9.252;2022-08-01T06:20:42;4.40;;;1.80;;
70733;SDS011;58320;48.804;9.252;2022-08-01T06:23:08;2.97;;;1.60;;
70733;SDS011;58320;48.804;9.252;2022-08-01T06:25:35;2.80;;;1.35;;
70733;SDS011;58320;48.804;9.252;2022-08-01T06:28:01;3.08;;;1.45;;
70733;SDS011;58320;48.804;9.252;2022-08-01T06:30:27;3.65;;;2.00;;
70733;SDS011;58320;48.804;9.252;2022-08-01T06:32:53;2.42;;;1.20;;
70733;SDS011;58320;48.804;9.252;2022-08-01T06:35:21;3.30;;;1.40;;
70733;SDS011;58320;48.804;9.252;2022-08-01T06:37:47;4.30;;;1.75;;
70733;SDS011;58320;48.804;9.252;2022-08-01T06:40:13;3.45;;;1.30;;
70733;SDS011;58320;48.804;9.252;2022-08-01T06:42:40;2.73;;;1.43;;
70733;SDS011;58320;48.804;9.252;2022-08-01T06:45:07;2.60;;;1.50;;
70733;SDS011;58320;48.804;9.252;2022-08-01T06:47:35;3.20;;;1.58;;
70733;SDS011;58320;48.804;9.252;2022-08-01T06:50:02;3.47;;;1.92;;
70733;SDS011;58320;48.804;9.252;2022-08-01T06:52:29;4.15;;;1.70;;
70733;SDS011;58320;48.804;9.252;2022-08-01T06:54:55;3.30;;;1.15;;
70733;SDS011;58320;48.804;9.252;2022-08-01T06:57:21;2.80;;;1.20;;
70733;SDS011;58320;48.804;9.252;2022-08-01T06:59:47;3.53;;;1.33;;
70733;SDS011;58320;48.804;9.252;2022-08-01T07:02:13;2.90;;;1.58;;
70733;SDS011;58320;48.804;9.252;2022-08-01T07:04:38;2.70;;;1.55;;
70733;SDS011;58320;48.804;9.252;2022-08-01T07:07:04;3.00;;;1.50;;
70733;SDS011;58320;48.804;9.252;2022-08-01T07:09:30;4.22;;;1.52;;
70733;SDS011;58320;48.804;9.252;2022-08-01T07:11:56;3.65;;;1.58;;
70733;SDS011;58320;48.804;9.252;2022-08-01T07:14:22;6.30;;;1.43;;
70733;SDS011;58320;48.804;9.252;2022-08-01T07:16:49;3.90;;;1.70;;
70733;SDS011;58320;48.804;9.252;2022-08-01T07:19:15;4.07;;;1.88;;
70733;SDS011;58320;48.804;9.252;2022-08-01T07:21:42;2.67;;;1.30;;
70733;SDS011;58320;48.804;9.252;2022-08-01T07:24:09;3.25;;;1.83;;
70733;SDS011;58320;48.804;9.252;2022-08-01T07:26:38;3.83;;;1.92;;
70733;SDS011;58320;48.804;9.252;2022-08-01T07:29:07;3.92;;;1.67;;
70733;SDS011;58320;48.804;9.252;2022-08-01T07:31:33;3.07;;;1.50;;
70733;SDS011;58320;48.804;9.252;2022-08-01T07:33:59;3.33;;;1.80;;
70733;SDS011;58320;48.804;9.252;2022-08-01T07:36:25;3.15;;;1.60;;
70733;SDS011;58320;48.804;9.252;2022-08-01T07:38:50;14.07;;;2.00;;
70733;SDS011;58320;48.804;9.252;2022-08-01T07:41:16;3.30;;;1.70;;
70733;SDS011;58320;48.804;9.252;2022-08-01T07:43:42;3.20;;;1.70;;
70733;SDS011;58320;48.804;9.252;2022-08-01T07:46:08;3.90;;;1.53;;
70733;SDS011;58320;48.804;9.252;2022-08-01T07:48:35;3.78;;;1.60;;
70733;SDS011;58320;48.804;9.252;2022-08-01T07:51:01;5.95;;;1.90;;
70733;SDS011;58320;48.804;9.252;2022-08-01T07:53:27;3.80;;;1.80;;
70733;SDS011;58320;48.804;9.252;2022-08-01T07:55:54;3.57;;;1.80;;
70733;SDS011;58320;48.804;9.252;2022-08-01T07:58:19;2.80;;;1.60;;
70733;SDS011;58320;48.804;9.252;2022-08-01T08:00:45;3.53;;;1.85;;
70733;SDS011;58320;48.804;9.252;2022-08-01T08:03:11;4.00;;;1.87;;
70733;SDS011;58320;48.804;9.252;2022-08-01T08:05:37;3.23;;;1.70;;
70733;SDS011;58320;48.804;9.252;2022-08-01T08:08:06;3.83;;;1.73;;
70733;SDS011;58320;48.804;9.252;2022-08-01T08:10:33;4.60;;;1.95;;
70733;SDS011;58320;48.804;9.252;2022-08-01T08:12:59;5.45;;;1.80;;
70733;SDS011;58320;48.804;9.252;2022-08-01T08:15:26;3.42;;;1.67;;
70733;SDS011;58320;48.804;9.252;2022-08-01T08:17:53;4.03;;;2.10;;
70733;SDS011;58320;48.804;9.252;2022-08-01T08:20:19;2.90;;;1.80;;
70733;SDS011;58320;48.804;9.252;2022-08-01T08:22:50;3.78;;;2.00;;
70733;SDS011;58320;48.804;9.252;2022-08-01T08:25:16;4.80;;;1.85;;
70733;SDS011;58320;48.804;9.252;2022-08-01T08:27:44;3.33;;;1.73;;
70733;SDS011;58320;48.804;9.252;2022-08-01T08:30:11;5.53;;;2.15;;
70733;SDS011;58320;48.804;9.252;2022-08-01T08:32:38;3.28;;;2.00;;
70733;SDS011;58320;48.804;9.252;2022-08-01T08:35:05;4.18;;;1.70;;
70733;SDS011;58320;48.804;9.252;2022-08-01T08:37:33;3.45;;;1.85;;
70733;SDS011;58320;48.804;9.252;2022-08-01T08:40:00;3.13;;;1.97;;
70733;SDS011;58320;48.804;9.252;2022-08-01T08:42:28;4.50;;;1.70;;
70733;SDS011;58320;48.804;9.252;2022-08-01T08:44:54;4.05;;;1.90;;
70733;SDS011;58320;48.804;9.252;2022-08-01T08:47:20;4.90;;;1.90;;
70733;SDS011;58320;48.804;9.252;2022-08-01T08:49:48;3.00;;;1.73;;
70733;SDS011;58320;48.804;9.252;2022-08-01T08:52:18;3.90;;;2.03;;
70733;SDS011;58320;48.804;9.252;2022-08-01T08:54:46;4.90;;;2.20;;
70733;SDS011;58320;48.804;9.252;2022-08-01T08:57:13;3.37;;;2.10;;
70733;SDS011;58320;48.804;9.252;2022-08-01T08:59:42;3.30;;;2.13;;
70733;SDS011;58320;48.804;9.252;2022-08-01T09:02:08;4.10;;;2.17;;
70733;SDS011;58320;48.804;9.252;2022-08-01T09:04:36;3.53;;;2.00;;
70733;SDS011;58320;48.804;9.252;2022-08-01T09:07:04;4.35;;;2.30;;
70733;SDS011;58320;48.804;9.252;2022-08-01T09:09:30;4.10;;;2.15;;
70733;SDS011;58320;48.804;9.252;2022-08-01T09:11:56;5.00;;;2.15;;
70733;SDS011;58320;48.804;9.252;2022-08-01T09:14:22;4.93;;;2.20;;
70733;SDS011;58320;48.804;9.252;2022-08-01T09:17:25;3.10;;;1.87;;
70733;SDS011;58320;48.804;9.252;2022-08-01T09:19:52;5.20;;;2.30;;
70733;SDS011;58320;48.804;9.252;2022-08-01T09:22:21;5.20;;;3.20;;
70733;SDS011;58320;48.804;9.252;2022-08-01T09:25:04;3.92;;;2.67;;
70733;SDS011;58320;48.804;9.252;2022-08-01T09:27:30;4.55;;;3.03;;
70733;SDS011;58320;48.804;9.252;2022-08-01T09:30:06;4.78;;;2.65;;
70733;SDS011;58320;48.804;9.252;2022-08-01T09:32:53;5.13;;;2.78;;
70733;SDS011;58320;48.804;9.252;2022-08-01T09:35:23;7.10;;;3.72;;
70733;SDS011;58320;48.804;9.252;2022-08-01T09:37:50;8.15;;;3.15;;
70733;SDS011;58320;48.804;9.252;2022-08-01T09:40:16;4.77;;;2.97;;
70733;SDS011;58320;48.804;9.252;2022-08-01T09:42:42;7.50;;;2.63;;
70733;SDS011;58320;48.804;9.252;2022-08-01T09:45:08;4.90;;;3.05;;
70733;SDS011;58320;48.804;9.252;2022-08-01T09:47:38;6.43;;;2.93;;
70733;SDS011;58320;48.804;9.252;2022-08-01T09:50:04;5.03;;;3.07;;
70733;SDS011;58320;48.804;9.252;2022-08-01T09:52:31;4.28;;;2.70;;
70733;SDS011;58320;48.804;9.252;2022-08-01T09:54:59;5.93;;;2.58;;
70733;SDS011;58320;48.804;9.252;2022-08-01T09:57:31;5.10;;;3.10;;
70733;SDS011;58320;48.804;9.252;2022-08-01T09:59:58;4.88;;;2.90;;
70733;SDS011;58320;48.804;9.252;2022-08-01T10:05:06;5.35;;;3.50;;
70733;SDS011;58320;48.804;9.252;2022-08-01T10:07:54;5.88;;;3.40;;
70733;SDS011;58320;48.804;9.252;2022-08-01T10:10:24;6.35;;;3.80;;
70733;SDS011;58320;48.804;9.252;2022-08-01T10:12:51;4.93;;;2.90;;
70733;SDS011;58320;48.804;9.252;2022-08-01T10:15:18;6.53;;;3.83;;
70733;SDS011;58320;48.804;9.252;2022-08-01T10:17:58;5.93;;;4.00;;
70733;SDS011;58320;48.804;9.252;2022-08-01T10:20:27;5.50;;;3.85;;
70733;SDS011;58320;48.804;9.252;2022-08-01T10:23:01;4.45;;;3.08;;
70733;SDS011;58320;48.804;9.252;2022-08-01T10:25:29;6.80;;;3.28;;
70733;SDS011;58320;48.804;9.252;2022-08-01T10:28:02;7.13;;;3.55;;
70733;SDS011;58320;48.804;9.252;2022-08-01T10:30:37;6.78;;;3.70;;
70733;SDS011;58320;48.804;9.252;2022-08-01T10:33:06;4.93;;;3.47;;
70733;SDS011;58320;48.804;9.252;2022-08-01T10:35:33;5.47;;;3.40;;
70733;SDS011;58320;48.804;9.252;2022-08-01T10:37:59;4.20;;;3.00;;
70733;SDS011;58320;48.804;9.252;2022-08-01T10:40:25;6.10;;;3.40;;
70733;SDS011;58320;48.804;9.252;2022-08-01T10:42:52;4.55;;;3.00;;
70733;SDS011;58320;48.804;9.252;2022-08-01T10:45:19;4.35;;;2.67;;
70733;SDS011;58320;48.804;9.252;2022-08-01T10:50:52;4.70;;;2.67;;
70733;SDS011;58320;48.804;9.252;2022-08-01T10:53:20;5.53;;;3.10;;
70733;SDS011;58320;48.804;9.252;2022-08-01T10:55:49;5.53;;;3.10;;
70733;SDS011;58320;48.804;9.252;2022-08-01T10:58:29;4.57;;;3.03;;
70733;SDS011;58320;48.804;9.252;2022-08-01T11:12:11;3.92;;;3.00;;
70733;SDS011;58320;48.804;9.252;2022-08-01T11:15:22;4.03;;;2.67;;
70733;SDS011;58320;48.804;9.252;2022-08-01T11:17:30;4.20;;;3.10;;
70733;SDS011;58320;48.804;9.252;2022-08-01T11:28:23;4.32;;;2.88;;
70733;SDS011;58320;48.804;9.252;2022-08-01T11:30:50;4.10;;;2.80;;
70733;SDS011;58320;48.804;9.252;2022-08-01T11:36:16;3.95;;;2.60;;
70733;SDS011;58320;48.804;9.252;2022-08-01T11:38:43;4.28;;;2.85;;
70733;SDS011;58320;48.804;9.252;2022-08-01T11:41:23;4.93;;;2.35;;
70733;SDS011;58320;48.804;9.252;2022-08-01T11:43:56;3.85;;;2.33;;
70733;SDS011;58320;48.804;9.252;2022-08-01T11:49:31;3.75;;;2.60;;
70733;SDS011;58320;48.804;9.252;2022-08-01T11:52:03;3.47;;;2.33;;
70733;SDS011;58320;48.804;9.252;2022-08-01T11:54:32;5.13;;;2.67;;
70733;SDS011;58320;48.804;9.252;2022-08-01T11:57:07;4.53;;;2.90;;
70733;SDS011;58320;48.804;9.252;2022-08-01T11:59:39;4.83;;;2.90;;
70733;SDS011;58320;48.804;9.252;2022-08-01T12:02:30;3.55;;;2.42;;
70733;SDS011;58320;48.804;9.252;2022-08-01T12:05:05;4.10;;;2.53;;
70733;SDS011;58320;48.804;9.252;2022-08-01T12:07:35;3.70;;;2.17;;
70733;SDS011;58320;48.804;9.252;2022-08-01T12:12:31;3.65;;;2.40;;
70733;SDS011;58320;48.804;9.252;2022-08-01T12:15:00;4.97;;;2.80;;
70733;SDS011;58320;48.804;9.252;2022-08-01T12:17:34;6.45;;;2.92;;
70733;SDS011;58320;48.804;9.252;2022-08-01T12:20:04;4.68;;;2.85;;
70733;SDS011;58320;48.804;9.252;2022-08-01T12:22:36;4.23;;;2.87;;
70733;SDS011;58320;48.804;9.252;2022-08-01T12:25:08;5.37;;;2.83;;
70733;SDS011;58320;48.804;9.252;2022-08-01T12:27:37;4.15;;;2.63;;
70733;SDS011;58320;48.804;9.252;2022-08-01T12:30:06;4.20;;;2.47;;
70733;SDS011;58320;48.804;9.252;2022-08-01T12:32:38;3.60;;;2.60;;
70733;SDS011;58320;48.804;9.252;2022-08-01T12:37:47;3.67;;;2.40;;
70733;SDS011;58320;48.804;9.252;2022-08-01T12:42:55;4.47;;;2.70;;
70733;SDS011;58320;48.804;9.252;2022-08-01T12:45:25;3.90;;;2.38;;
70733;SDS011;58320;48.804;9.252;2022-08-01T12:47:54;3.93;;;2.40;;
70733;SDS011;58320;48.804;9.252;2022-08-01T12:50:22;4.33;;;2.50;;
70733;SDS011;58320;48.804;9.252;2022-08-01T12:52:53;4.63;;;2.38;;
70733;SDS011;58320;48.804;9.252;2022-08-01T12:55:23;4.72;;;2.65;;
70733;SDS011;58320;48.804;9.252;2022-08-01T12:58:12;6.30;;;2.50;;
70733;SDS011;58320;48.804;9.252;2022-08-01T13:00:39;3.40;;;2.55;;
70733;SDS011;58320;48.804;9.252;2022-08-01T13:03:09;4.65;;;2.70;;
70733;SDS011;58320;48.804;9.252;2022-08-01T13:08:09;4.03;;;2.47;;
70733;SDS011;58320;48.804;9.252;2022-08-01T13:10:42;4.07;;;2.05;;
70733;SDS011;58320;48.804;9.252;2022-08-01T13:13:09;3.30;;;2.10;;
70733;SDS011;58320;48.804;9.252;2022-08-01T13:15:37;3.58;;;2.22;;
70733;SDS011;58320;48.804;9.252;2022-08-01T13:18:24;4.95;;;2.80;;
70733;SDS011;58320;48.804;9.252;2022-08-01T13:24:08;4.07;;;2.63;;
70733;SDS011;58320;48.804;9.252;2022-08-01T13:29:06;4.70;;;2.70;;
70733;SDS011;58320;48.804;9.252;2022-08-01T13:31:34;5.57;;;2.30;;
70733;SDS011;58320;48.804;9.252;2022-08-01T13:34:00;3.50;;;2.13;;
70733;SDS011;58320;48.804;9.252;2022-08-01T13:36:27;6.32;;;2.13;;
70733;SDS011;58320;48.804;9.252;2022-08-01T13:38:54;4.25;;;2.47;;
70733;SDS011;58320;48.804;9.252;2022-08-01T13:41:39;3.90;;;2.38;;
70733;SDS011;58320;48.804;9.252;2022-08-01T13:44:05;3.87;;;2.10;;
70733;SDS011;58320;48.804;9.252;2022-08-01T13:46:33;3.63;;;1.92;;
70733;SDS011;58320;48.804;9.252;2022-08-01T13:49:00;4.30;;;2.00;;
70733;SDS011;58320;48.804;9.252;2022-08-01T13:51:27;3.58;;;2.20;;
70733;SDS011;58320;48.804;9.252;2022-08-01T13:53:53;3.80;;;2.05;;
70733;SDS011;58320;48.804;9.252;2022-08-01T13:56:19;4.57;;;1.73;;
70733;SDS011;58320;48.804;9.252;2022-08-01T13:58:45;3.25;;;2.22;;
70733;SDS011;58320;48.804;9.252;2022-08-01T14:01:11;4.88;;;2.03;;
70733;SDS011;58320;48.804;9.252;2022-08-01T14:03:38;6.05;;;2.13;;
70733;SDS011;58320;48.804;9.252;2022-08-01T14:06:03;3.10;;;1.80;;
70733;SDS011;58320;48.804;9.252;2022-08-01T14:08:30;5.50;;;2.30;;
70733;SDS011;58320;48.804;9.252;2022-08-01T14:10:57;4.78;;;2.25;;
70733;SDS011;58320;48.804;9.252;2022-08-01T14:13:26;4.68;;;2.10;;
70733;SDS011;58320;48.804;9.252;2022-08-01T14:15:52;3.75;;;2.08;;
70733;SDS011;58320;48.804;9.252;2022-08-01T14:18:18;3.70;;;2.30;;
70733;SDS011;58320;48.804;9.252;2022-08-01T14:20:44;4.20;;;2.10;;
70733;SDS011;58320;48.804;9.252;2022-08-01T14:23:10;3.58;;;1.98;;
70733;SDS011;58320;48.804;9.252;2022-08-01T14:25:37;4.23;;;1.97;;
70733;SDS011;58320;48.804;9.252;2022-08-01T14:28:04;3.42;;;2.00;;
70733;SDS011;58320;48.804;9.252;2022-08-01T14:30:31;3.40;;;2.20;;
70733;SDS011;58320;48.804;9.252;2022-08-01T14:32:58;3.65;;;2.08;;
70733;SDS011;58320;48.804;9.252;2022-08-01T14:35:24;5.28;;;1.92;;
70733;SDS011;58320;48.804;9.252;2022-08-01T14:37:50;4.22;;;2.20;;
70733;SDS011;58320;48.804;9.252;2022-08-01T14:40:16;5.28;;;2.10;;
70733;SDS011;58320;48.804;9.252;2022-08-01T14:42:43;3.97;;;2.00;;
70733;SDS011;58320;48.804;9.252;2022-08-01T14:45:12;3.77;;;1.97;;
70733;SDS011;58320;48.804;9.252;2022-08-01T14:47:39;3.13;;;1.88;;
70733;SDS011;58320;48.804;9.252;2022-08-01T14:50:08;3.80;;;2.17;;
70733;SDS011;58320;48.804;9.252;2022-08-01T14:52:37;3.90;;;2.20;;
70733;SDS011;58320;48.804;9.252;2022-08-01T14:55:05;4.18;;;2.30;;
70733;SDS011;58320;48.804;9.252;2022-08-01T14:57:34;3.13;;;2.00;;
70733;SDS011;58320;48.804;9.252;2022-08-01T15:00:02;3.00;;;1.90;;
70733;SDS011;58320;48.804;9.252;2022-08-01T15:02:31;3.67;;;2.00;;
70733;SDS011;58320;48.804;9.252;2022-08-01T15:04:57;3.70;;;2.03;;
70733;SDS011;58320;48.804;9.252;2022-08-01T15:07:23;4.87;;;2.20;;
70733;SDS011;58320;48.804;9.252;2022-08-01T15:09:49;4.80;;;2.20;;
70733;SDS011;58320;48.804;9.252;2022-08-01T15:12:15;3.10;;;1.97;;
70733;SDS011;58320;48.804;9.252;2022-08-01T15:14:40;4.10;;;2.05;;
70733;SDS011;58320;48.804;9.252;2022-08-01T15:17:13;4.45;;;2.00;;
70733;SDS011;58320;48.804;9.252;2022-08-01T15:19:44;3.67;;;2.38;;
70733;SDS011;58320;48.804;9.252;2022-08-01T15:22:12;3.45;;;1.80;;
70733;SDS011;58320;48.804;9.252;2022-08-01T15:24:38;3.65;;;2.13;;
70733;SDS011;58320;48.804;9.252;2022-08-01T15:27:05;3.47;;;1.70;;
70733;SDS011;58320;48.804;9.252;2022-08-01T15:29:31;4.37;;;1.87;;
70733;SDS011;58320;48.804;9.252;2022-08-01T15:31:59;3.05;;;1.85;;
70733;SDS011;58320;48.804;9.252;2022-08-01T15:34:26;3.10;;;1.90;;
70733;SDS011;58320;48.804;9.252;2022-08-01T15:36:51;5.35;;;2.10;;
70733;SDS011;58320;48.804;9.252;2022-08-01T15:39:17;3.47;;;2.00;;
70733;SDS011;58320;48.804;9.252;2022-08-01T15:41:43;3.33;;;2.00;;
70733;SDS011;58320;48.804;9.252;2022-08-01T15:44:09;3.22;;;1.90;;
70733;SDS011;58320;48.804;9.252;2022-08-01T15:46:35;3.10;;;1.90;;
70733;SDS011;58320;48.804;9.252;2022-08-01T15:49:04;3.30;;;1.73;;
70733;SDS011;58320;48.804;9.252;2022-08-01T15:51:31;3.58;;;1.73;;
70733;SDS011;58320;48.804;9.252;2022-08-01T15:53:58;3.35;;;1.90;;
70733;SDS011;58320;48.804;9.252;2022-08-01T15:56:30;3.65;;;2.08;;
70733;SDS011;58320;48.804;9.252;2022-08-01T15:58:57;6.47;;;1.80;;
70733;SDS011;58320;48.804;9.252;2022-08-01T16:01:23;3.63;;;1.95;;
70733;SDS011;58320;48.804;9.252;2022-08-01T16:03:55;3.78;;;1.80;;
70733;SDS011;58320;48.804;9.252;2022-08-01T16:06:23;3.33;;;2.03;;